sensor_id;sensor_type;location;lat;lon;timestamp;P1;durP1;ratioP1;P2;durP2;ratioP2
70320;SDS011;61127;55.826;37.046;2023-03-23T00:02:23;3.17;;;1.67;;
70320;SDS011;61127;55.826;37.046;2023-03-23T00:04:49;2.05;;;1.40;;
70320;SDS011;61127;55.826;37.046;2023-03-23T00:07:16;4.93;;;1.80;;
70320;SDS011;61127;55.826;37.046;2023-03-23T00:09:47;2.88;;;1.60;;
70320;SDS011;61127;55.826;37.046;2023-03-23T00:12:14;3.40;;;1.83;;
70320;SDS011;61127;55.826;37.046;2023-03-23T00:14:41;4.10;;;1.98;;
70320;SDS011;61127;55.826;37.046;2023-03-23T00:17:08;3.53;;;1.67;;
70320;SDS011;61127;55.826;37.046;2023-03-23T00:19:39;3.28;;;1.70;;
70320;SDS011;61127;55.826;37.046;2023-03-23T00:22:13;3.25;;;1.67;;
70320;SDS011;61127;55.826;37.046;2023-03-23T00:24:39;3.30;;;1.70;;
70320;SDS011;61127;55.826;37.046;2023-03-23T00:27:05;3.92;;;1.80;;
70320;SDS011;61127;55.826;37.046;2023-03-23T00:29:30;4.63;;;1.77;;
70320;SDS011;61127;55.826;37.046;2023-03-23T00:31:58;4.10;;;2.05;;
70320;SDS011;61127;55.826;37.046;2023-03-23T00:34:24;3.92;;;1.65;;
70320;SDS011;61127;55.826;37.046;2023-03-23T00:36:54;4.05;;;1.67;;
70320;SDS011;61127;55.826;37.046;2023-03-23T00:39:27;4.78;;;2.00;;
70320;SDS011;61127;55.826;37.046;2023-03-23T00:41:54;3.90;;;1.73;;
70320;SDS011;61127;55.826;37.046;2023-03-23T00:44:30;3.35;;;1.77;;
70320;SDS011;61127;55.826;37.046;2023-03-23T00:46:58;4.63;;;1.80;;
70320;SDS011;61127;55.826;37.046;2023-03-23T00:49:25;4.57;;;2.10;;
70320;SDS011;61127;55.826;37.046;2023-03-23T00:52:00;3.85;;;1.90;;
70320;SDS011;61127;55.826;37.046;2023-03-23T00:54:26;4.03;;;1.73;;
70320;SDS011;61127;55.826;37.046;2023-03-23T00:56:51;3.00;;;1.60;;
70320;SDS011;61127;55.826;37.046;2023-03-23T00:59:18;4.38;;;1.77;;
70320;SDS011;61127;55.826;37.046;2023-03-23T01:01:44;4.30;;;1.67;;
70320;SDS011;61127;55.826;37.046;2023-03-23T01:04:10;2.78;;;1.60;;
70320;SDS011;61127;55.826;37.046;2023-03-23T01:09:27;5.80;;;1.77;;
70320;SDS011;61127;55.826;37.046;2023-03-23T01:11:52;7.18;;;1.80;;
70320;SDS011;61127;55.826;37.046;2023-03-23T01:14:19;6.55;;;1.80;;
70320;SDS011;61127;55.826;37.046;2023-03-23T01:16:47;7.57;;;1.63;;
70320;SDS011;61127;55.826;37.046;2023-03-23T01:19:13;5.83;;;1.83;;
70320;SDS011;61127;55.826;37.046;2023-03-23T01:21:41;4.15;;;2.03;;
70320;SDS011;61127;55.826;37.046;2023-03-23T01:24:08;8.77;;;1.70;;
70320;SDS011;61127;55.826;37.046;2023-03-23T01:26:34;6.15;;;1.80;;
70320;SDS011;61127;55.826;37.046;2023-03-23T01:29:00;5.03;;;1.73;;
70320;SDS011;61127;55.826;37.046;2023-03-23T01:31:27;4.97;;;1.80;;
70320;SDS011;61127;55.826;37.046;2023-03-23T01:33:53;4.35;;;1.90;;
70320;SDS011;61127;55.826;37.046;2023-03-23T01:36:23;5.13;;;1.70;;
70320;SDS011;61127;55.826;37.046;2023-03-23T01:38:49;5.67;;;1.83;;
70320;SDS011;61127;55.826;37.046;2023-03-23T01:41:18;5.40;;;1.65;;
70320;SDS011;61127;55.826;37.046;2023-03-23T01:46:25;5.07;;;1.67;;
70320;SDS011;61127;55.826;37.046;2023-03-23T01:48:51;5.22;;;1.92;;
70320;SDS011;61127;55.826;37.046;2023-03-23T01:51:18;4.70;;;1.90;;
70320;SDS011;61127;55.826;37.046;2023-03-23T01:53:56;5.55;;;2.30;;
70320;SDS011;61127;55.826;37.046;2023-03-23T01:56:24;5.03;;;2.20;;
70320;SDS011;61127;55.826;37.046;2023-03-23T01:58:55;4.95;;;2.22;;
70320;SDS011;61127;55.826;37.046;2023-03-23T02:01:22;4.10;;;2.15;;
70320;SDS011;61127;55.826;37.046;2023-03-23T02:03:52;4.73;;;2.10;;
70320;SDS011;61127;55.826;37.046;2023-03-23T02:06:18;4.22;;;1.80;;
70320;SDS011;61127;55.826;37.046;2023-03-23T02:09:00;5.00;;;2.22;;
70320;SDS011;61127;55.826;37.046;2023-03-23T02:11:27;4.22;;;1.70;;
70320;SDS011;61127;55.826;37.046;2023-03-23T02:13:53;3.73;;;1.87;;
70320;SDS011;61127;55.826;37.046;2023-03-23T02:19:17;7.82;;;2.20;;
70320;SDS011;61127;55.826;37.046;2023-03-23T02:27:42;4.13;;;2.08;;
70320;SDS011;61127;55.826;37.046;2023-03-23T02:35:34;3.78;;;1.83;;
70320;SDS011;61127;55.826;37.046;2023-03-23T02:38:02;3.58;;;1.90;;
70320;SDS011;61127;55.826;37.046;2023-03-23T02:40:32;3.67;;;1.80;;
70320;SDS011;61127;55.826;37.046;2023-03-23T02:42:59;4.38;;;1.90;;
70320;SDS011;61127;55.826;37.046;2023-03-23T02:45:27;4.35;;;2.00;;
70320;SDS011;61127;55.826;37.046;2023-03-23T02:47:53;4.15;;;2.17;;
70320;SDS011;61127;55.826;37.046;2023-03-23T02:50:22;3.65;;;1.80;;
70320;SDS011;61127;55.826;37.046;2023-03-23T02:52:50;4.18;;;1.90;;
70320;SDS011;61127;55.826;37.046;2023-03-23T02:55:16;3.72;;;1.83;;
70320;SDS011;61127;55.826;37.046;2023-03-23T02:57:44;3.97;;;2.13;;
70320;SDS011;61127;55.826;37.046;2023-03-23T03:00:14;4.10;;;2.05;;
70320;SDS011;61127;55.826;37.046;2023-03-23T03:02:46;7.20;;;2.22;;
70320;SDS011;61127;55.826;37.046;2023-03-23T03:08:05;4.20;;;1.85;;
70320;SDS011;61127;55.826;37.046;2023-03-23T03:13:25;4.53;;;1.95;;
70320;SDS011;61127;55.826;37.046;2023-03-23T03:16:02;3.88;;;1.95;;
70320;SDS011;61127;55.826;37.046;2023-03-23T03:21:02;4.97;;;2.25;;
70320;SDS011;61127;55.826;37.046;2023-03-23T03:23:34;5.78;;;2.22;;
70320;SDS011;61127;55.826;37.046;2023-03-23T03:26:03;5.00;;;2.33;;
70320;SDS011;61127;55.826;37.046;2023-03-23T03:28:48;3.40;;;2.00;;
70320;SDS011;61127;55.826;37.046;2023-03-23T03:33:45;5.85;;;2.35;;
70320;SDS011;61127;55.826;37.046;2023-03-23T03:36:16;6.05;;;2.10;;
70320;SDS011;61127;55.826;37.046;2023-03-23T03:38:44;5.78;;;2.45;;
70320;SDS011;61127;55.826;37.046;2023-03-23T03:41:10;4.28;;;2.33;;
70320;SDS011;61127;55.826;37.046;2023-03-23T03:43:37;4.28;;;2.17;;
70320;SDS011;61127;55.826;37.046;2023-03-23T03:46:03;6.70;;;2.60;;
70320;SDS011;61127;55.826;37.046;2023-03-23T03:48:29;4.80;;;2.30;;
70320;SDS011;61127;55.826;37.046;2023-03-23T03:50:55;5.07;;;2.33;;
70320;SDS011;61127;55.826;37.046;2023-03-23T03:53:24;5.22;;;2.53;;
70320;SDS011;61127;55.826;37.046;2023-03-23T03:55:49;4.88;;;2.22;;
70320;SDS011;61127;55.826;37.046;2023-03-23T03:58:18;5.53;;;2.20;;
70320;SDS011;61127;55.826;37.046;2023-03-23T04:01:06;4.53;;;2.20;;
70320;SDS011;61127;55.826;37.046;2023-03-23T04:03:39;6.35;;;2.42;;
70320;SDS011;61127;55.826;37.046;2023-03-23T04:06:28;4.03;;;2.20;;
70320;SDS011;61127;55.826;37.046;2023-03-23T04:08:55;4.75;;;2.38;;
70320;SDS011;61127;55.826;37.046;2023-03-23T04:11:21;4.85;;;2.67;;
70320;SDS011;61127;55.826;37.046;2023-03-23T04:13:49;5.07;;;2.60;;
70320;SDS011;61127;55.826;37.046;2023-03-23T04:16:22;5.40;;;2.40;;
70320;SDS011;61127;55.826;37.046;2023-03-23T04:18:48;5.03;;;2.45;;
70320;SDS011;61127;55.826;37.046;2023-03-23T04:21:15;6.47;;;2.90;;
70320;SDS011;61127;55.826;37.046;2023-03-23T04:23:45;5.18;;;2.35;;
70320;SDS011;61127;55.826;37.046;2023-03-23T04:26:11;4.80;;;2.40;;
70320;SDS011;61127;55.826;37.046;2023-03-23T04:28:46;5.10;;;2.75;;
70320;SDS011;61127;55.826;37.046;2023-03-23T04:31:31;7.25;;;2.80;;
70320;SDS011;61127;55.826;37.046;2023-03-23T04:37:10;5.30;;;2.70;;
70320;SDS011;61127;55.826;37.046;2023-03-23T04:39:40;5.70;;;2.80;;
70320;SDS011;61127;55.826;37.046;2023-03-23T04:42:09;6.32;;;2.70;;
70320;SDS011;61127;55.826;37.046;2023-03-23T04:44:58;6.43;;;3.10;;
70320;SDS011;61127;55.826;37.046;2023-03-23T04:47:31;5.28;;;2.70;;
70320;SDS011;61127;55.826;37.046;2023-03-23T04:49:59;5.00;;;2.47;;
70320;SDS011;61127;55.826;37.046;2023-03-23T04:52:49;5.93;;;2.97;;
70320;SDS011;61127;55.826;37.046;2023-03-23T04:55:18;7.22;;;3.50;;
70320;SDS011;61127;55.826;37.046;2023-03-23T04:57:52;7.65;;;3.00;;
70320;SDS011;61127;55.826;37.046;2023-03-23T05:00:35;6.47;;;2.60;;
70320;SDS011;61127;55.826;37.046;2023-03-23T05:03:03;4.88;;;2.67;;
70320;SDS011;61127;55.826;37.046;2023-03-23T05:05:31;6.63;;;3.20;;
70320;SDS011;61127;55.826;37.046;2023-03-23T05:10:41;5.70;;;3.30;;
70320;SDS011;61127;55.826;37.046;2023-03-23T05:13:13;6.47;;;3.00;;
70320;SDS011;61127;55.826;37.046;2023-03-23T05:18:25;6.40;;;3.20;;
70320;SDS011;61127;55.826;37.046;2023-03-23T05:20:53;6.72;;;3.15;;
70320;SDS011;61127;55.826;37.046;2023-03-23T05:23:21;6.63;;;3.50;;
70320;SDS011;61127;55.826;37.046;2023-03-23T05:25:57;7.10;;;3.40;;
70320;SDS011;61127;55.826;37.046;2023-03-23T05:28:27;5.18;;;3.00;;
70320;SDS011;61127;55.826;37.046;2023-03-23T05:31:06;7.23;;;3.50;;
70320;SDS011;61127;55.826;37.046;2023-03-23T05:33:32;7.18;;;3.55;;
70320;SDS011;61127;55.826;37.046;2023-03-23T05:36:07;7.82;;;3.42;;
70320;SDS011;61127;55.826;37.046;2023-03-23T05:38:57;7.22;;;3.67;;
70320;SDS011;61127;55.826;37.046;2023-03-23T05:41:38;7.53;;;3.63;;
70320;SDS011;61127;55.826;37.046;2023-03-23T05:44:06;8.63;;;3.70;;
70320;SDS011;61127;55.826;37.046;2023-03-23T05:46:44;7.25;;;3.85;;
70320;SDS011;61127;55.826;37.046;2023-03-23T05:49:10;8.38;;;4.10;;
70320;SDS011;61127;55.826;37.046;2023-03-23T05:51:39;8.65;;;4.50;;
70320;SDS011;61127;55.826;37.046;2023-03-23T05:54:05;7.10;;;3.58;;
70320;SDS011;61127;55.826;37.046;2023-03-23T05:56:32;8.70;;;4.27;;
70320;SDS011;61127;55.826;37.046;2023-03-23T05:59:17;10.00;;;4.20;;
70320;SDS011;61127;55.826;37.046;2023-03-23T06:01:46;9.00;;;3.55;;
70320;SDS011;61127;55.826;37.046;2023-03-23T06:04:11;8.40;;;4.57;;
70320;SDS011;61127;55.826;37.046;2023-03-23T06:09:18;10.25;;;4.18;;
70320;SDS011;61127;55.826;37.046;2023-03-23T06:12:17;10.30;;;4.50;;
70320;SDS011;61127;55.826;37.046;2023-03-23T06:14:52;9.40;;;4.30;;
70320;SDS011;61127;55.826;37.046;2023-03-23T06:17:25;8.53;;;3.97;;
70320;SDS011;61127;55.826;37.046;2023-03-23T06:19:53;9.45;;;4.35;;
70320;SDS011;61127;55.826;37.046;2023-03-23T06:22:20;7.25;;;4.03;;
70320;SDS011;61127;55.826;37.046;2023-03-23T06:25:08;10.57;;;4.75;;
70320;SDS011;61127;55.826;37.046;2023-03-23T06:27:39;9.13;;;4.70;;
70320;SDS011;61127;55.826;37.046;2023-03-23T06:30:07;9.70;;;4.60;;
70320;SDS011;61127;55.826;37.046;2023-03-23T06:32:33;9.27;;;4.50;;
70320;SDS011;61127;55.826;37.046;2023-03-23T06:35:01;8.60;;;4.35;;
70320;SDS011;61127;55.826;37.046;2023-03-23T06:37:45;7.75;;;3.95;;
70320;SDS011;61127;55.826;37.046;2023-03-23T06:43:14;7.83;;;3.90;;
70320;SDS011;61127;55.826;37.046;2023-03-23T06:45:54;10.38;;;4.70;;
70320;SDS011;61127;55.826;37.046;2023-03-23T06:48:38;8.60;;;4.38;;
70320;SDS011;61127;55.826;37.046;2023-03-23T06:51:05;10.02;;;4.50;;
70320;SDS011;61127;55.826;37.046;2023-03-23T06:53:34;7.47;;;4.30;;
70320;SDS011;61127;55.826;37.046;2023-03-23T06:56:00;8.37;;;4.30;;
70320;SDS011;61127;55.826;37.046;2023-03-23T06:58:28;9.48;;;5.07;;
70320;SDS011;61127;55.826;37.046;2023-03-23T07:00:57;8.30;;;4.40;;
70320;SDS011;61127;55.826;37.046;2023-03-23T07:03:30;9.05;;;4.50;;
70320;SDS011;61127;55.826;37.046;2023-03-23T07:05:58;8.38;;;4.75;;
70320;SDS011;61127;55.826;37.046;2023-03-23T07:08:27;7.70;;;4.30;;
70320;SDS011;61127;55.826;37.046;2023-03-23T07:10:54;8.63;;;4.20;;
70320;SDS011;61127;55.826;37.046;2023-03-23T07:13:26;9.23;;;4.47;;
70320;SDS011;61127;55.826;37.046;2023-03-23T07:16:00;8.02;;;4.20;;
70320;SDS011;61127;55.826;37.046;2023-03-23T07:18:27;11.18;;;4.85;;
70320;SDS011;61127;55.826;37.046;2023-03-23T07:20:55;8.30;;;4.60;;
70320;SDS011;61127;55.826;37.046;2023-03-23T07:23:28;9.52;;;4.47;;
70320;SDS011;61127;55.826;37.046;2023-03-23T07:26:00;10.20;;;4.88;;
70320;SDS011;61127;55.826;37.046;2023-03-23T07:28:32;8.23;;;4.53;;
70320;SDS011;61127;55.826;37.046;2023-03-23T07:31:05;7.85;;;4.43;;
70320;SDS011;61127;55.826;37.046;2023-03-23T07:33:34;7.07;;;4.50;;
70320;SDS011;61127;55.826;37.046;2023-03-23T07:36:01;6.35;;;4.40;;
70320;SDS011;61127;55.826;37.046;2023-03-23T07:38:29;10.05;;;5.00;;
70320;SDS011;61127;55.826;37.046;2023-03-23T07:40:57;7.18;;;4.28;;
70320;SDS011;61127;55.826;37.046;2023-03-23T07:43:24;9.25;;;4.70;;
70320;SDS011;61127;55.826;37.046;2023-03-23T07:46:13;8.93;;;4.00;;
70320;SDS011;61127;55.826;37.046;2023-03-23T07:48:56;9.30;;;5.13;;
70320;SDS011;61127;55.826;37.046;2023-03-23T07:51:29;8.27;;;4.50;;
70320;SDS011;61127;55.826;37.046;2023-03-23T07:56:48;9.20;;;4.47;;
70320;SDS011;61127;55.826;37.046;2023-03-23T07:59:21;6.68;;;4.88;;
70320;SDS011;61127;55.826;37.046;2023-03-23T08:01:47;8.15;;;4.32;;
70320;SDS011;61127;55.826;37.046;2023-03-23T08:04:39;9.57;;;4.85;;
70320;SDS011;61127;55.826;37.046;2023-03-23T08:07:08;7.43;;;4.37;;
70320;SDS011;61127;55.826;37.046;2023-03-23T08:10:03;8.95;;;4.30;;
70320;SDS011;61127;55.826;37.046;2023-03-23T08:12:52;9.13;;;4.63;;
70320;SDS011;61127;55.826;37.046;2023-03-23T08:15:53;7.20;;;4.40;;
70320;SDS011;61127;55.826;37.046;2023-03-23T08:18:43;6.90;;;4.30;;
70320;SDS011;61127;55.826;37.046;2023-03-23T08:21:28;11.07;;;4.97;;
70320;SDS011;61127;55.826;37.046;2023-03-23T08:24:16;8.07;;;4.43;;
70320;SDS011;61127;55.826;37.046;2023-03-23T08:27:05;8.57;;;4.60;;
70320;SDS011;61127;55.826;37.046;2023-03-23T08:29:38;6.90;;;4.40;;
70320;SDS011;61127;55.826;37.046;2023-03-23T08:32:04;8.13;;;4.53;;
70320;SDS011;61127;55.826;37.046;2023-03-23T08:34:29;7.17;;;4.10;;
70320;SDS011;61127;55.826;37.046;2023-03-23T08:37:08;7.82;;;4.25;;
70320;SDS011;61127;55.826;37.046;2023-03-23T08:39:46;6.28;;;3.88;;
70320;SDS011;61127;55.826;37.046;2023-03-23T08:42:26;6.97;;;4.13;;
70320;SDS011;61127;55.826;37.046;2023-03-23T08:45:11;7.13;;;3.97;;
70320;SDS011;61127;55.826;37.046;2023-03-23T08:47:56;9.47;;;4.20;;
70320;SDS011;61127;55.826;37.046;2023-03-23T08:50:27;7.53;;;3.97;;
70320;SDS011;61127;55.826;37.046;2023-03-23T08:53:01;7.55;;;4.22;;
70320;SDS011;61127;55.826;37.046;2023-03-23T08:55:45;7.20;;;3.83;;
70320;SDS011;61127;55.826;37.046;2023-03-23T08:58:11;7.17;;;4.07;;
70320;SDS011;61127;55.826;37.046;2023-03-23T09:01:00;7.55;;;3.97;;
70320;SDS011;61127;55.826;37.046;2023-03-23T09:03:55;6.88;;;3.90;;
70320;SDS011;61127;55.826;37.046;2023-03-23T09:06:40;5.82;;;3.78;;
70320;SDS011;61127;55.826;37.046;2023-03-23T09:09:06;7.18;;;4.28;;
70320;SDS011;61127;55.826;37.046;2023-03-23T09:11:33;6.03;;;3.73;;
70320;SDS011;61127;55.826;37.046;2023-03-23T09:14:00;7.05;;;3.70;;
70320;SDS011;61127;55.826;37.046;2023-03-23T09:16:26;6.20;;;3.90;;
70320;SDS011;61127;55.826;37.046;2023-03-23T09:18:52;8.57;;;4.53;;
70320;SDS011;61127;55.826;37.046;2023-03-23T09:21:17;6.53;;;3.73;;
70320;SDS011;61127;55.826;37.046;2023-03-23T09:23:43;6.47;;;3.53;;
70320;SDS011;61127;55.826;37.046;2023-03-23T09:26:10;5.27;;;3.27;;
70320;SDS011;61127;55.826;37.046;2023-03-23T09:28:36;5.00;;;3.30;;
70320;SDS011;61127;55.826;37.046;2023-03-23T09:31:02;6.88;;;3.30;;
70320;SDS011;61127;55.826;37.046;2023-03-23T09:33:31;3.87;;;3.13;;
70320;SDS011;61127;55.826;37.046;2023-03-23T09:36:00;4.38;;;3.20;;
70320;SDS011;61127;55.826;37.046;2023-03-23T09:38:28;6.13;;;3.50;;
70320;SDS011;61127;55.826;37.046;2023-03-23T09:41:23;7.40;;;3.40;;
70320;SDS011;61127;55.826;37.046;2023-03-23T09:54:05;12.18;;;3.50;;
70320;SDS011;61127;55.826;37.046;2023-03-23T09:56:36;5.43;;;3.15;;
70320;SDS011;61127;55.826;37.046;2023-03-23T09:59:08;4.60;;;3.03;;
70320;SDS011;61127;55.826;37.046;2023-03-23T10:01:42;5.13;;;3.08;;
70320;SDS011;61127;55.826;37.046;2023-03-23T10:04:12;5.63;;;3.00;;
70320;SDS011;61127;55.826;37.046;2023-03-23T10:06:40;5.85;;;3.00;;
70320;SDS011;61127;55.826;37.046;2023-03-23T10:09:05;5.13;;;3.17;;
70320;SDS011;61127;55.826;37.046;2023-03-23T10:16:30;3.83;;;3.30;;
70320;SDS011;61127;55.826;37.046;2023-03-23T10:19:45;3.45;;;2.63;;
70320;SDS011;61127;55.826;37.046;2023-03-23T10:21:54;5.77;;;3.17;;
70320;SDS011;61127;55.826;37.046;2023-03-23T10:24:21;5.93;;;3.20;;
70320;SDS011;61127;55.826;37.046;2023-03-23T10:27:05;5.00;;;3.30;;
70320;SDS011;61127;55.826;37.046;2023-03-23T10:29:35;4.53;;;2.97;;
70320;SDS011;61127;55.826;37.046;2023-03-23T10:32:18;4.25;;;2.85;;
70320;SDS011;61127;55.826;37.046;2023-03-23T10:34:53;8.07;;;3.23;;
70320;SDS011;61127;55.826;37.046;2023-03-23T10:39:53;5.97;;;3.10;;
70320;SDS011;61127;55.826;37.046;2023-03-23T10:42:25;5.60;;;3.20;;
70320;SDS011;61127;55.826;37.046;2023-03-23T10:44:52;4.38;;;2.85;;
70320;SDS011;61127;55.826;37.046;2023-03-23T10:47:19;5.90;;;2.90;;
70320;SDS011;61127;55.826;37.046;2023-03-23T10:49:50;9.52;;;3.33;;
70320;SDS011;61127;55.826;37.046;2023-03-23T10:52:35;3.40;;;2.80;;
70320;SDS011;61127;55.826;37.046;2023-03-23T10:55:09;5.05;;;2.95;;
70320;SDS011;61127;55.826;37.046;2023-03-23T10:57:36;4.50;;;2.60;;
70320;SDS011;61127;55.826;37.046;2023-03-23T11:00:21;6.10;;;2.60;;
70320;SDS011;61127;55.826;37.046;2023-03-23T11:02:58;5.03;;;3.10;;
70320;SDS011;61127;55.826;37.046;2023-03-23T11:05:37;6.75;;;2.90;;
70320;SDS011;61127;55.826;37.046;2023-03-23T11:08:10;4.82;;;3.00;;
70320;SDS011;61127;55.826;37.046;2023-03-23T11:10:39;3.95;;;2.80;;
70320;SDS011;61127;55.826;37.046;2023-03-23T11:13:11;5.53;;;3.07;;
70320;SDS011;61127;55.826;37.046;2023-03-23T11:15:40;5.43;;;2.58;;
70320;SDS011;61127;55.826;37.046;2023-03-23T11:18:09;7.78;;;2.72;;
70320;SDS011;61127;55.826;37.046;2023-03-23T11:20:45;7.63;;;2.90;;
70320;SDS011;61127;55.826;37.046;2023-03-23T11:28:27;4.22;;;2.47;;
70320;SDS011;61127;55.826;37.046;2023-03-23T11:30:55;4.35;;;2.90;;
70320;SDS011;61127;55.826;37.046;2023-03-23T11:33:21;6.38;;;2.60;;
70320;SDS011;61127;55.826;37.046;2023-03-23T11:35:50;5.32;;;2.65;;
70320;SDS011;61127;55.826;37.046;2023-03-23T11:38:18;4.07;;;2.70;;
70320;SDS011;61127;55.826;37.046;2023-03-23T11:40:47;6.50;;;3.00;;
70320;SDS011;61127;55.826;37.046;2023-03-23T11:43:17;5.45;;;2.70;;
70320;SDS011;61127;55.826;37.046;2023-03-23T11:45:48;3.88;;;2.33;;
70320;SDS011;61127;55.826;37.046;2023-03-23T11:50:49;4.63;;;2.90;;
70320;SDS011;61127;55.826;37.046;2023-03-23T11:58:18;6.35;;;2.72;;
70320;SDS011;61127;55.826;37.046;2023-03-23T12:00:58;5.28;;;2.60;;
70320;SDS011;61127;55.826;37.046;2023-03-23T12:10:56;7.57;;;3.13;;
70320;SDS011;61127;55.826;37.046;2023-03-23T12:13:37;5.03;;;2.70;;
70320;SDS011;61127;55.826;37.046;2023-03-23T12:26:17;5.32;;;2.80;;
70320;SDS011;61127;55.826;37.046;2023-03-23T12:33:54;6.03;;;2.80;;
70320;SDS011;61127;55.826;37.046;2023-03-23T12:44:09;6.15;;;2.80;;
70320;SDS011;61127;55.826;37.046;2023-03-23T12:51:47;6.15;;;2.78;;
70320;SDS011;61127;55.826;37.046;2023-03-23T12:56:58;3.95;;;2.30;;
70320;SDS011;61127;55.826;37.046;2023-03-23T12:59:39;5.22;;;2.75;;
70320;SDS011;61127;55.826;37.046;2023-03-23T13:02:19;4.65;;;2.22;;
70320;SDS011;61127;55.826;37.046;2023-03-23T13:04:49;6.35;;;2.40;;
70320;SDS011;61127;55.826;37.046;2023-03-23T13:07:20;6.03;;;2.57;;
70320;SDS011;61127;55.826;37.046;2023-03-23T13:12:41;5.50;;;2.40;;
70320;SDS011;61127;55.826;37.046;2023-03-23T13:17:56;5.95;;;2.63;;
70320;SDS011;61127;55.826;37.046;2023-03-23T13:26:05;6.55;;;2.50;;
70320;SDS011;61127;55.826;37.046;2023-03-23T13:28:34;6.63;;;3.00;;
70320;SDS011;61127;55.826;37.046;2023-03-23T13:33:34;7.73;;;3.00;;
70320;SDS011;61127;55.826;37.046;2023-03-23T13:36:03;4.53;;;2.50;;
70320;SDS011;61127;55.826;37.046;2023-03-23T13:38:33;6.78;;;3.10;;
70320;SDS011;61127;55.826;37.046;2023-03-23T13:41:05;3.57;;;2.37;;
70320;SDS011;61127;55.826;37.046;2023-03-23T13:43:33;4.53;;;2.60;;
70320;SDS011;61127;55.826;37.046;2023-03-23T13:46:08;7.47;;;2.65;;
70320;SDS011;61127;55.826;37.046;2023-03-23T13:48:43;6.88;;;2.60;;
70320;SDS011;61127;55.826;37.046;2023-03-23T13:56:55;4.43;;;2.70;;
70320;SDS011;61127;55.826;37.046;2023-03-23T13:59:29;8.15;;;2.60;;
70320;SDS011;61127;55.826;37.046;2023-03-23T14:01:57;7.15;;;3.30;;
70320;SDS011;61127;55.826;37.046;2023-03-23T14:04:41;5.80;;;2.60;;
70320;SDS011;61127;55.826;37.046;2023-03-23T14:07:10;7.97;;;2.78;;
70320;SDS011;61127;55.826;37.046;2023-03-23T14:09:38;6.20;;;2.90;;
70320;SDS011;61127;55.826;37.046;2023-03-23T14:12:12;4.85;;;2.55;;
70320;SDS011;61127;55.826;37.046;2023-03-23T14:14:40;6.40;;;2.73;;
70320;SDS011;61127;55.826;37.046;2023-03-23T14:17:07;7.88;;;2.80;;
70320;SDS011;61127;55.826;37.046;2023-03-23T14:19:37;8.25;;;2.88;;
70320;SDS011;61127;55.826;37.046;2023-03-23T14:22:04;6.78;;;2.38;;
70320;SDS011;61127;55.826;37.046;2023-03-23T14:24:31;6.90;;;2.80;;
70320;SDS011;61127;55.826;37.046;2023-03-23T14:29:35;5.95;;;3.00;;
70320;SDS011;61127;55.826;37.046;2023-03-23T14:32:01;6.90;;;3.53;;
70320;SDS011;61127;55.826;37.046;2023-03-23T14:34:28;7.50;;;3.72;;
70320;SDS011;61127;55.826;37.046;2023-03-23T14:36:54;5.13;;;2.67;;
70320;SDS011;61127;55.826;37.046;2023-03-23T14:39:23;8.52;;;3.47;;
70320;SDS011;61127;55.826;37.046;2023-03-23T14:41:51;8.83;;;3.73;;
70320;SDS011;61127;55.826;37.046;2023-03-23T14:44:22;6.70;;;3.13;;
70320;SDS011;61127;55.826;37.046;2023-03-23T14:46:48;5.68;;;3.15;;
70320;SDS011;61127;55.826;37.046;2023-03-23T14:49:15;7.57;;;2.80;;
70320;SDS011;61127;55.826;37.046;2023-03-23T14:51:49;6.15;;;2.90;;
70320;SDS011;61127;55.826;37.046;2023-03-23T14:54:15;4.03;;;2.57;;
70320;SDS011;61127;55.826;37.046;2023-03-23T14:56:41;8.48;;;2.90;;
70320;SDS011;61127;55.826;37.046;2023-03-23T14:59:09;5.50;;;2.70;;
70320;SDS011;61127;55.826;37.046;2023-03-23T15:01:36;5.57;;;2.90;;
70320;SDS011;61127;55.826;37.046;2023-03-23T15:06:33;5.47;;;2.92;;
70320;SDS011;61127;55.826;37.046;2023-03-23T15:09:03;5.53;;;2.78;;
70320;SDS011;61127;55.826;37.046;2023-03-23T15:11:30;8.90;;;3.00;;
70320;SDS011;61127;55.826;37.046;2023-03-23T15:14:02;7.70;;;3.07;;
70320;SDS011;61127;55.826;37.046;2023-03-23T15:16:30;10.52;;;2.85;;
70320;SDS011;61127;55.826;37.046;2023-03-23T15:19:04;7.03;;;2.97;;
70320;SDS011;61127;55.826;37.046;2023-03-23T15:23:57;7.60;;;2.93;;
70320;SDS011;61127;55.826;37.046;2023-03-23T15:28:49;11.00;;;3.60;;
70320;SDS011;61127;55.826;37.046;2023-03-23T15:31:14;6.50;;;3.10;;
70320;SDS011;61127;55.826;37.046;2023-03-23T15:33:46;6.57;;;3.30;;
70320;SDS011;61127;55.826;37.046;2023-03-23T15:36:15;7.60;;;3.00;;
70320;SDS011;61127;55.826;37.046;2023-03-23T15:38:42;5.22;;;2.80;;
70320;SDS011;61127;55.826;37.046;2023-03-23T15:41:19;3.60;;;2.47;;
70320;SDS011;61127;55.826;37.046;2023-03-23T15:43:50;8.02;;;3.30;;
70320;SDS011;61127;55.826;37.046;2023-03-23T15:46:20;6.38;;;3.00;;
70320;SDS011;61127;55.826;37.046;2023-03-23T15:51:24;6.05;;;2.80;;
70320;SDS011;61127;55.826;37.046;2023-03-23T15:53:53;10.93;;;4.10;;
70320;SDS011;61127;55.826;37.046;2023-03-23T15:56:20;9.55;;;3.47;;
70320;SDS011;61127;55.826;37.046;2023-03-23T15:58:45;11.43;;;3.35;;
70320;SDS011;61127;55.826;37.046;2023-03-23T16:01:12;10.17;;;3.07;;
70320;SDS011;61127;55.826;37.046;2023-03-23T16:03:42;5.70;;;2.85;;
70320;SDS011;61127;55.826;37.046;2023-03-23T16:06:13;5.93;;;3.08;;
70320;SDS011;61127;55.826;37.046;2023-03-23T16:08:40;7.82;;;3.35;;
70320;SDS011;61127;55.826;37.046;2023-03-23T16:11:13;9.65;;;2.95;;
70320;SDS011;61127;55.826;37.046;2023-03-23T16:13:43;5.40;;;2.73;;
70320;SDS011;61127;55.826;37.046;2023-03-23T16:16:16;7.28;;;3.22;;
70320;SDS011;61127;55.826;37.046;2023-03-23T16:18:42;6.45;;;3.10;;
70320;SDS011;61127;55.826;37.046;2023-03-23T16:21:08;7.47;;;3.20;;
70320;SDS011;61127;55.826;37.046;2023-03-23T16:23:34;7.07;;;3.22;;
70320;SDS011;61127;55.826;37.046;2023-03-23T16:25:59;5.53;;;2.95;;
70320;SDS011;61127;55.826;37.046;2023-03-23T16:28:25;6.07;;;3.13;;
70320;SDS011;61127;55.826;37.046;2023-03-23T16:30:51;6.65;;;2.90;;
70320;SDS011;61127;55.826;37.046;2023-03-23T16:33:18;7.27;;;2.87;;
70320;SDS011;61127;55.826;37.046;2023-03-23T16:35:44;8.80;;;3.33;;
70320;SDS011;61127;55.826;37.046;2023-03-23T16:38:11;9.73;;;3.50;;
70320;SDS011;61127;55.826;37.046;2023-03-23T16:40:37;5.38;;;3.38;;
70320;SDS011;61127;55.826;37.046;2023-03-23T16:43:04;6.60;;;3.30;;
70320;SDS011;61127;55.826;37.046;2023-03-23T16:45:30;6.00;;;3.05;;
70320;SDS011;61127;55.826;37.046;2023-03-23T16:47:56;7.07;;;3.25;;
70320;SDS011;61127;55.826;37.046;2023-03-23T16:50:26;7.85;;;3.40;;
70320;SDS011;61127;55.826;37.046;2023-03-23T16:52:52;11.00;;;3.50;;
70320;SDS011;61127;55.826;37.046;2023-03-23T16:55:18;7.28;;;3.70;;
70320;SDS011;61127;55.826;37.046;2023-03-23T16:57:44;9.13;;;3.70;;
70320;SDS011;61127;55.826;37.046;2023-03-23T17:00:10;6.70;;;3.30;;
70320;SDS011;61127;55.826;37.046;2023-03-23T17:02:40;9.88;;;3.53;;
70320;SDS011;61127;55.826;37.046;2023-03-23T17:05:07;6.78;;;3.40;;
70320;SDS011;61127;55.826;37.046;2023-03-23T17:07:33;8.53;;;3.90;;
70320;SDS011;61127;55.826;37.046;2023-03-23T17:09:59;7.47;;;3.30;;
70320;SDS011;61127;55.826;37.046;2023-03-23T17:12:25;8.88;;;3.58;;
70320;SDS011;61127;55.826;37.046;2023-03-23T17:14:51;6.43;;;3.10;;
70320;SDS011;61127;55.826;37.046;2023-03-23T17:17:18;8.52;;;3.60;;
70320;SDS011;61127;55.826;37.046;2023-03-23T17:19:43;9.95;;;3.95;;
70320;SDS011;61127;55.826;37.046;2023-03-23T17:22:10;8.20;;;3.50;;
70320;SDS011;61127;55.826;37.046;2023-03-23T17:24:36;9.48;;;3.75;;